N417BA KIAD-KTEB
Flight info
| Callsign | N417BA |
|---|---|
| Flight time | 0h 46m |
| Altitude | 37000 |
| Route | WOOLY2 SWANN JAIKE4 |
| Aircraft | LJ35/M-SGHRWXY/SB1 |
Departure
| Time | 2026-05-05 19:45 |
|---|---|
| Airport | Washington Dulles International Airport (KIAD) |
Arrival
| Time | 2026-05-05 20:31 |
|---|---|
| Airport | Teterboro Airport (KTEB) |
| Time | Latitude | Longitude | Altitude | Speed | Heading |
|---|---|---|---|---|---|
| 2026-05-05 19:26 | 38.95457 | -77.44151 | 295 ft | 0 kts | 91° |
| 2026-05-05 19:36 | 38.95466 | -77.44116 | 296 ft | 9 kts | 52° |
| 2026-05-05 19:36 | 38.95484 | -77.44085 | 296 ft | 0 kts | 57° |
| 2026-05-05 19:38 | 38.95486 | -77.44060 | 296 ft | 2 kts | 92° |
| 2026-05-05 19:39 | 38.95485 | -77.44034 | 295 ft | 2 kts | 92° |
| 2026-05-05 19:39 | 38.95485 | -77.44030 | 295 ft | 3 kts | 92° |
| 2026-05-05 19:39 | 38.95485 | -77.43963 | 295 ft | 11 kts | 90° |
| 2026-05-05 19:39 | 38.95484 | -77.43916 | 295 ft | 3 kts | 91° |
| 2026-05-05 19:40 | 38.95484 | -77.43892 | 295 ft | 9 kts | 93° |
| 2026-05-05 19:40 | 38.95430 | -77.43851 | 295 ft | 11 kts | 179° |
| 2026-05-05 19:40 | 38.95393 | -77.43828 | 297 ft | 5 kts | 90° |
| 2026-05-05 19:40 | 38.95394 | -77.43780 | 295 ft | 0 kts | 88° |
| 2026-05-05 19:41 | 38.95394 | -77.43772 | 295 ft | 2 kts | 89° |
| 2026-05-05 19:42 | 38.95394 | -77.43756 | 295 ft | 2 kts | 90° |
| 2026-05-05 19:42 | 38.95394 | -77.43727 | 295 ft | 5 kts | 90° |
| 2026-05-05 19:42 | 38.95394 | -77.43723 | 295 ft | 0 kts | 90° |
| 2026-05-05 19:42 | 38.95394 | -77.43706 | 295 ft | 7 kts | 91° |
| 2026-05-05 19:43 | 38.95386 | -77.43612 | 297 ft | 12 kts | 128° |
| 2026-05-05 19:43 | 38.95362 | -77.43602 | 294 ft | 0 kts | 181° |
| 2026-05-05 19:44 | 38.95343 | -77.43603 | 297 ft | 11 kts | 181° |
| 2026-05-05 19:44 | 38.95067 | -77.43607 | 294 ft | 84 kts | 180° |
| 2026-05-05 19:45 | 38.94203 | -77.43616 | 468 ft | 151 kts | 184° |
| 2026-05-05 19:45 | 38.93058 | -77.43807 | 1199 ft | 187 kts | 205° |
| 2026-05-05 19:45 | 38.92016 | -77.45012 | 2091 ft | 218 kts | 232° |
| 2026-05-05 19:45 | 38.91479 | -77.46901 | 3318 ft | 229 kts | 255° |
| 2026-05-05 19:46 | 38.91189 | -77.48958 | 4619 ft | 229 kts | 255° |
| 2026-05-05 19:46 | 38.90943 | -77.51078 | 5753 ft | 249 kts | 258° |
| 2026-05-05 19:46 | 38.90728 | -77.53210 | 7381 ft | 235 kts | 259° |
| 2026-05-05 19:46 | 38.90527 | -77.55248 | 8801 ft | 233 kts | 259° |
| 2026-05-05 19:47 | 38.90336 | -77.57309 | 10151 ft | 234 kts | 264° |
| 2026-05-05 19:47 | 38.90763 | -77.59358 | 11327 ft | 249 kts | 295° |
| 2026-05-05 19:47 | 38.92043 | -77.60938 | 12496 ft | 268 kts | 323° |
| 2026-05-05 19:47 | 38.93918 | -77.61734 | 13155 ft | 308 kts | 345° |
| 2026-05-05 19:48 | 38.96203 | -77.61566 | 13472 ft | 352 kts | 8° |
| 2026-05-05 19:48 | 38.98548 | -77.60221 | 13795 ft | 388 kts | 29° |
| 2026-05-05 19:48 | 39.00480 | -77.57742 | 14637 ft | 398 kts | 52° |
| 2026-05-05 19:48 | 39.01697 | -77.54536 | 15467 ft | 404 kts | 73° |
| 2026-05-05 19:49 | 39.02223 | -77.50974 | 16327 ft | 407 kts | 83° |
| 2026-05-05 19:49 | 39.02446 | -77.48578 | 17029 ft | 407 kts | 84° |
| 2026-05-05 19:49 | 39.02880 | -77.43698 | 18788 ft | 415 kts | 84° |
| 2026-05-05 19:49 | 39.03237 | -77.39984 | 19927 ft | 422 kts | 84° |
| 2026-05-05 19:50 | 39.03619 | -77.36205 | 20736 ft | 431 kts | 83° |
| 2026-05-05 19:50 | 39.03877 | -77.33710 | 20816 ft | 419 kts | 83° |
| 2026-05-05 19:50 | 39.04261 | -77.30075 | 20866 ft | 403 kts | 83° |
| 2026-05-05 19:50 | 39.04640 | -77.26517 | 20900 ft | 401 kts | 83° |
| 2026-05-05 19:51 | 39.05012 | -77.22968 | 20911 ft | 402 kts | 83° |
| 2026-05-05 19:51 | 39.05394 | -77.19291 | 20920 ft | 431 kts | 83° |
| 2026-05-05 19:51 | 39.05801 | -77.15422 | 21912 ft | 434 kts | 83° |
| 2026-05-05 19:51 | 39.06208 | -77.11559 | 23043 ft | 439 kts | 82° |
| 2026-05-05 19:52 | 39.06620 | -77.07640 | 23847 ft | 448 kts | 82° |
| 2026-05-05 19:52 | 39.07036 | -77.03660 | 24699 ft | 449 kts | 82° |
| 2026-05-05 19:52 | 39.07452 | -76.99657 | 25465 ft | 454 kts | 82° |
| 2026-05-05 19:52 | 39.07873 | -76.95600 | 26145 ft | 461 kts | 82° |
| 2026-05-05 19:53 | 39.08297 | -76.91494 | 26846 ft | 466 kts | 81° |
| 2026-05-05 19:53 | 39.08723 | -76.87342 | 27524 ft | 471 kts | 81° |
| 2026-05-05 19:53 | 39.09153 | -76.83142 | 28188 ft | 475 kts | 80° |
| 2026-05-05 19:53 | 39.09585 | -76.78912 | 28793 ft | 479 kts | 80° |
| 2026-05-05 19:54 | 39.10020 | -76.74630 | 29346 ft | 484 kts | 80° |
| 2026-05-05 19:54 | 39.10457 | -76.70313 | 29876 ft | 488 kts | 80° |
| 2026-05-05 19:54 | 39.10893 | -76.65979 | 30405 ft | 489 kts | 79° |
| 2026-05-05 19:54 | 39.11329 | -76.61639 | 30916 ft | 490 kts | 79° |
| 2026-05-05 19:55 | 39.11764 | -76.57285 | 31413 ft | 491 kts | 79° |
| 2026-05-05 19:55 | 39.12200 | -76.52918 | 31901 ft | 492 kts | 78° |
| 2026-05-05 19:55 | 39.12633 | -76.48541 | 32435 ft | 492 kts | 78° |
| 2026-05-05 19:55 | 39.13066 | -76.44167 | 32808 ft | 493 kts | 78° |
| 2026-05-05 19:56 | 39.13492 | -76.39840 | 32881 ft | 483 kts | 78° |
| 2026-05-05 19:56 | 39.14334 | -76.31445 | 32906 ft | 454 kts | 75° |
| 2026-05-05 19:56 | 39.15061 | -76.27623 | 32896 ft | 427 kts | 65° |
| 2026-05-05 19:57 | 39.16143 | -76.24177 | 32825 ft | 404 kts | 57° |
| 2026-05-05 19:57 | 39.17460 | -76.21050 | 32504 ft | 392 kts | 50° |
| 2026-05-05 19:57 | 39.19044 | -76.18247 | 31969 ft | 382 kts | 39° |
| 2026-05-05 19:57 | 39.20945 | -76.15909 | 31476 ft | 377 kts | 32° |
| 2026-05-05 19:58 | 39.22961 | -76.13674 | 30981 ft | 388 kts | 34° |
| 2026-05-05 19:58 | 39.25015 | -76.11365 | 30513 ft | 395 kts | 34° |
| 2026-05-05 19:58 | 39.27142 | -76.09093 | 30019 ft | 400 kts | 33° |
| 2026-05-05 19:58 | 39.29329 | -76.06794 | 29227 ft | 410 kts | 34° |
| 2026-05-05 19:59 | 39.31486 | -76.04282 | 28325 ft | 424 kts | 39° |
| 2026-05-05 19:59 | 39.33547 | -76.01497 | 27467 ft | 434 kts | 44° |
| 2026-05-05 19:59 | 39.35485 | -75.98453 | 26639 ft | 442 kts | 49° |
| 2026-05-05 19:59 | 39.37271 | -75.95179 | 25830 ft | 447 kts | 54° |
| 2026-05-05 20:00 | 39.39114 | -75.92003 | 25056 ft | 437 kts | 43° |
| 2026-05-05 20:00 | 39.41451 | -75.89582 | 24316 ft | 427 kts | 27° |
| 2026-05-05 20:00 | 39.44075 | -75.87855 | 23586 ft | 422 kts | 23° |
| 2026-05-05 20:00 | 39.46774 | -75.86459 | 22741 ft | 417 kts | 15° |
| 2026-05-05 20:01 | 39.49511 | -75.85233 | 21904 ft | 415 kts | 15° |
| 2026-05-05 20:01 | 39.52213 | -75.83927 | 21089 ft | 415 kts | 19° |
| 2026-05-05 20:01 | 39.54794 | -75.82253 | 20292 ft | 415 kts | 26° |
| 2026-05-05 20:01 | 39.57241 | -75.80287 | 19516 ft | 412 kts | 30° |
| 2026-05-05 20:02 | 39.59593 | -75.78205 | 18753 ft | 408 kts | 31° |
| 2026-05-05 20:02 | 39.61911 | -75.76122 | 17997 ft | 404 kts | 32° |
| 2026-05-05 20:02 | 39.64195 | -75.74053 | 17151 ft | 401 kts | 32° |
| 2026-05-05 20:02 | 39.66483 | -75.71966 | 16320 ft | 397 kts | 32° |
| 2026-05-05 20:03 | 39.68729 | -75.69908 | 15516 ft | 393 kts | 32° |
| 2026-05-05 20:03 | 39.70955 | -75.67863 | 14731 ft | 390 kts | 31° |
| 2026-05-05 20:03 | 39.73165 | -75.65831 | 13965 ft | 388 kts | 31° |
| 2026-05-05 20:03 | 39.75339 | -75.63832 | 13227 ft | 385 kts | 31° |
| 2026-05-05 20:04 | 39.77489 | -75.61850 | 13144 ft | 379 kts | 31° |
| 2026-05-05 20:04 | 39.79665 | -75.59848 | 13102 ft | 387 kts | 31° |
| 2026-05-05 20:04 | 39.81873 | -75.57815 | 13090 ft | 392 kts | 31° |
| 2026-05-05 20:04 | 39.84099 | -75.55762 | 13090 ft | 390 kts | 31° |
| 2026-05-05 20:05 | 39.86303 | -75.53726 | 13087 ft | 387 kts | 31° |
| 2026-05-05 20:05 | 39.88489 | -75.51706 | 13084 ft | 385 kts | 31° |
| 2026-05-05 20:05 | 39.90667 | -75.49690 | 13091 ft | 383 kts | 31° |
| 2026-05-05 20:05 | 39.92835 | -75.47682 | 13099 ft | 382 kts | 31° |
| 2026-05-05 20:06 | 39.94994 | -75.45683 | 13089 ft | 381 kts | 31° |
| 2026-05-05 20:06 | 39.97152 | -75.43682 | 13085 ft | 380 kts | 31° |
| 2026-05-05 20:06 | 39.99298 | -75.41686 | 13098 ft | 379 kts | 31° |
| 2026-05-05 20:06 | 40.01448 | -75.39683 | 13088 ft | 379 kts | 31° |
| 2026-05-05 20:07 | 40.03606 | -75.37678 | 13086 ft | 384 kts | 31° |
| 2026-05-05 20:07 | 40.05795 | -75.35641 | 13080 ft | 389 kts | 31° |
| 2026-05-05 20:07 | 40.08009 | -75.33580 | 13072 ft | 392 kts | 31° |
| 2026-05-05 20:07 | 40.10237 | -75.31502 | 13077 ft | 395 kts | 31° |
| 2026-05-05 20:08 | 40.12431 | -75.29451 | 13072 ft | 381 kts | 31° |
| 2026-05-05 20:08 | 40.14536 | -75.27481 | 13053 ft | 374 kts | 31° |
| 2026-05-05 20:08 | 40.16643 | -75.25488 | 12806 ft | 376 kts | 32° |
| 2026-05-05 20:08 | 40.18747 | -75.23389 | 12327 ft | 385 kts | 34° |
| 2026-05-05 20:09 | 40.20911 | -75.21294 | 11825 ft | 385 kts | 31° |
| 2026-05-05 20:09 | 40.23039 | -75.19381 | 11323 ft | 358 kts | 30° |
| 2026-05-05 20:09 | 40.25025 | -75.17592 | 10794 ft | 338 kts | 30° |
| 2026-05-05 20:09 | 40.26926 | -75.15861 | 10308 ft | 331 kts | 30° |
| 2026-05-05 20:10 | 40.28770 | -75.14078 | 10566 ft | 336 kts | 33° |
| 2026-05-05 20:10 | 40.30684 | -75.12152 | 11219 ft | 357 kts | 32° |
| 2026-05-05 20:10 | 40.32664 | -75.10021 | 11076 ft | 359 kts | 39° |
| 2026-05-05 20:10 | 40.34371 | -75.07830 | 11017 ft | 332 kts | 42° |
| 2026-05-05 20:11 | 40.35914 | -75.05645 | 10710 ft | 326 kts | 46° |
| 2026-05-05 20:11 | 40.37425 | -75.03408 | 10167 ft | 329 kts | 43° |
| 2026-05-05 20:11 | 40.39014 | -75.01233 | 9624 ft | 331 kts | 42° |
| 2026-05-05 20:11 | 40.40611 | -74.99059 | 9032 ft | 332 kts | 43° |
| 2026-05-05 20:12 | 40.42205 | -74.96869 | 8466 ft | 329 kts | 44° |
| 2026-05-05 20:12 | 40.43754 | -74.94715 | 7915 ft | 320 kts | 45° |
| 2026-05-05 20:12 | 40.45272 | -74.92592 | 7363 ft | 320 kts | 45° |
| 2026-05-05 20:12 | 40.46780 | -74.90474 | 7085 ft | 320 kts | 46° |
| 2026-05-05 20:13 | 40.48281 | -74.88355 | 7057 ft | 314 kts | 46° |
| 2026-05-05 20:13 | 40.49762 | -74.86262 | 7027 ft | 312 kts | 46° |
| 2026-05-05 20:13 | 40.51241 | -74.84171 | 7023 ft | 313 kts | 46° |
| 2026-05-05 20:13 | 40.52734 | -74.82065 | 7028 ft | 317 kts | 46° |
| 2026-05-05 20:14 | 40.54242 | -74.79936 | 7030 ft | 319 kts | 46° |
| 2026-05-05 20:14 | 40.55749 | -74.77801 | 7028 ft | 316 kts | 46° |
| 2026-05-05 20:14 | 40.57228 | -74.75700 | 7022 ft | 311 kts | 46° |
| 2026-05-05 20:14 | 40.58690 | -74.73623 | 7022 ft | 309 kts | 46° |
| 2026-05-05 20:15 | 40.60155 | -74.71553 | 7004 ft | 308 kts | 46° |
| 2026-05-05 20:15 | 40.61635 | -74.69511 | 7009 ft | 307 kts | 41° |
| 2026-05-05 20:15 | 40.63414 | -74.68028 | 7002 ft | 300 kts | 22° |
| 2026-05-05 20:15 | 40.65315 | -74.66902 | 6734 ft | 300 kts | 19° |
| 2026-05-05 20:16 | 40.67245 | -74.65854 | 6498 ft | 300 kts | 19° |
| 2026-05-05 20:16 | 40.69180 | -74.64846 | 6274 ft | 298 kts | 18° |
| 2026-05-05 20:16 | 40.71115 | -74.63868 | 6044 ft | 298 kts | 18° |
| 2026-05-05 20:16 | 40.73045 | -74.62917 | 5788 ft | 295 kts | 18° |
| 2026-05-05 20:17 | 40.74972 | -74.61964 | 5537 ft | 297 kts | 18° |
| 2026-05-05 20:17 | 40.76898 | -74.60998 | 5306 ft | 295 kts | 18° |
| 2026-05-05 20:17 | 40.78809 | -74.60035 | 5077 ft | 293 kts | 18° |
| 2026-05-05 20:17 | 40.80718 | -74.59089 | 4808 ft | 291 kts | 18° |
| 2026-05-05 20:18 | 40.82617 | -74.58141 | 4488 ft | 293 kts | 17° |
| 2026-05-05 20:18 | 40.84493 | -74.57207 | 4238 ft | 290 kts | 18° |
| 2026-05-05 20:18 | 40.86360 | -74.56279 | 4135 ft | 283 kts | 18° |
| 2026-05-05 20:18 | 40.88180 | -74.55373 | 4033 ft | 276 kts | 17° |
| 2026-05-05 20:19 | 40.89988 | -74.54512 | 4043 ft | 282 kts | 17° |
| 2026-05-05 20:19 | 40.91885 | -74.53565 | 4033 ft | 299 kts | 18° |
| 2026-05-05 20:19 | 40.93835 | -74.52583 | 4047 ft | 299 kts | 18° |
| 2026-05-05 20:19 | 40.95754 | -74.51512 | 4045 ft | 301 kts | 25° |
| 2026-05-05 20:20 | 40.97515 | -74.50020 | 4062 ft | 298 kts | 34° |
| 2026-05-05 20:20 | 40.99239 | -74.48464 | 3739 ft | 302 kts | 32° |
| 2026-05-05 20:20 | 41.00997 | -74.46953 | 3401 ft | 300 kts | 30° |
| 2026-05-05 20:20 | 41.02747 | -74.45455 | 3089 ft | 297 kts | 32° |
| 2026-05-05 20:21 | 41.04446 | -74.43980 | 3061 ft | 291 kts | 31° |
| 2026-05-05 20:21 | 41.06133 | -74.42480 | 3004 ft | 294 kts | 32° |
| 2026-05-05 20:21 | 41.07833 | -74.40940 | 3028 ft | 298 kts | 32° |
| 2026-05-05 20:21 | 41.09574 | -74.39424 | 3010 ft | 301 kts | 31° |
| 2026-05-05 20:22 | 41.11144 | -74.37581 | 2992 ft | 306 kts | 54° |
| 2026-05-05 20:22 | 41.12011 | -74.35052 | 3000 ft | 299 kts | 82° |
| 2026-05-05 20:22 | 41.12035 | -74.32397 | 3018 ft | 280 kts | 103° |
| 2026-05-05 20:22 | 41.11721 | -74.29916 | 3011 ft | 267 kts | 105° |
| 2026-05-05 20:23 | 41.11415 | -74.27537 | 3001 ft | 253 kts | 104° |
| 2026-05-05 20:23 | 41.11168 | -74.25303 | 2975 ft | 240 kts | 104° |
| 2026-05-05 20:23 | 41.10934 | -74.23098 | 3004 ft | 244 kts | 103° |
| 2026-05-05 20:23 | 41.10711 | -74.20841 | 2993 ft | 248 kts | 103° |
| 2026-05-05 20:24 | 41.10504 | -74.18568 | 3029 ft | 246 kts | 102° |
| 2026-05-05 20:24 | 41.10326 | -74.16308 | 2794 ft | 247 kts | 101° |
| 2026-05-05 20:24 | 41.10038 | -74.14137 | 2684 ft | 223 kts | 116° |
| 2026-05-05 20:24 | 41.09348 | -74.12453 | 2551 ft | 198 kts | 139° |
| 2026-05-05 20:25 | 41.08384 | -74.11269 | 2386 ft | 183 kts | 149° |
| 2026-05-05 20:25 | 41.07441 | -74.10147 | 2117 ft | 181 kts | 147° |
| 2026-05-05 20:25 | 41.06521 | -74.09032 | 2035 ft | 179 kts | 147° |
| 2026-05-05 20:25 | 41.05597 | -74.07927 | 2037 ft | 189 kts | 147° |
| 2026-05-05 20:26 | 41.04553 | -74.06707 | 2093 ft | 204 kts | 146° |
| 2026-05-05 20:26 | 41.03463 | -74.05484 | 2108 ft | 203 kts | 153° |
| 2026-05-05 20:26 | 41.02314 | -74.04838 | 2166 ft | 159 kts | 176° |
| 2026-05-05 20:26 | 41.01266 | -74.04683 | 1964 ft | 153 kts | 185° |
| 2026-05-05 20:27 | 41.00170 | -74.04792 | 1548 ft | 163 kts | 192° |
| 2026-05-05 20:27 | 40.99047 | -74.04983 | 1501 ft | 163 kts | 191° |
| 2026-05-05 20:27 | 40.97905 | -74.05027 | 1588 ft | 167 kts | 186° |
| 2026-05-05 20:27 | 40.96749 | -74.05035 | 1565 ft | 165 kts | 187° |
| 2026-05-05 20:28 | 40.95655 | -74.05111 | 1503 ft | 150 kts | 190° |
| 2026-05-05 20:28 | 40.94700 | -74.05165 | 1450 ft | 130 kts | 188° |
| 2026-05-05 20:28 | 40.93840 | -74.05202 | 1414 ft | 122 kts | 191° |
| 2026-05-05 20:28 | 40.92984 | -74.05277 | 1251 ft | 125 kts | 190° |
| 2026-05-05 20:29 | 40.92086 | -74.05386 | 1243 ft | 131 kts | 190° |
| 2026-05-05 20:29 | 40.91188 | -74.05456 | 1115 ft | 129 kts | 191° |
| 2026-05-05 20:29 | 40.90310 | -74.05535 | 881 ft | 122 kts | 192° |
| 2026-05-05 20:29 | 40.89482 | -74.05599 | 763 ft | 120 kts | 187° |
| 2026-05-05 20:30 | 40.88615 | -74.05675 | 594 ft | 128 kts | 190° |
| 2026-05-05 20:30 | 40.87722 | -74.05750 | 513 ft | 126 kts | 189° |
| 2026-05-05 20:30 | 40.86831 | -74.05826 | 371 ft | 130 kts | 187° |
| 2026-05-05 20:30 | 40.85950 | -74.05870 | 98 ft | 125 kts | 192° |
| 2026-05-05 20:31 | 40.85095 | -74.05948 | 7 ft | 111 kts | 184° |
| 2026-05-05 20:31 | 40.84588 | -74.05984 | 9 ft | 49 kts | 183° |
| 2026-05-05 20:31 | 40.84363 | -74.06007 | 12 ft | 21 kts | 195° |
| 2026-05-05 20:31 | 40.84271 | -74.06108 | 9 ft | 16 kts | 229° |
| 2026-05-05 20:32 | 40.84240 | -74.06171 | 9 ft | 5 kts | 251° |
| 2026-05-05 20:32 | 40.84242 | -74.06234 | 7 ft | 9 kts | 272° |
| 2026-05-05 20:32 | 40.84245 | -74.06335 | 3 ft | 13 kts | 274° |
| 2026-05-05 20:32 | 40.84250 | -74.06439 | 6 ft | 8 kts | 266° |
| 2026-05-05 20:33 | 40.84208 | -74.06483 | 6 ft | 8 kts | 210° |
| 2026-05-05 20:33 | 40.84166 | -74.06513 | 6 ft | 6 kts | 208° |
| 2026-05-05 20:33 | 40.84152 | -74.06566 | 6 ft | 6 kts | 306° |
| 2026-05-05 20:33 | 40.84167 | -74.06579 | 6 ft | 0 kts | 348° |
| 2026-05-05 20:34 | 40.84165 | -74.06544 | 6 ft | 9 kts | 121° |
| 2026-05-05 20:34 | 40.84151 | -74.06543 | 6 ft | 2 kts | 319° |
| 2026-05-05 20:34 | 40.84169 | -74.06561 | 6 ft | 0 kts | 295° |